createdAt,value
2023-04-24T00:01:37.960Z,14.20
2023-04-24T00:06:43.753Z,14.20
2023-04-24T00:11:45.649Z,14.30
2023-04-24T00:16:47.527Z,14.70
2023-04-24T00:21:50.997Z,14.30
2023-04-24T00:26:52.999Z,14.30
2023-04-24T00:31:54.888Z,14.30
2023-04-24T00:36:56.744Z,14.30
2023-04-24T00:41:58.958Z,14.30
2023-04-24T00:47:01.103Z,14.20
2023-04-24T00:52:03.159Z,14.20
2023-04-24T00:57:05.277Z,14.20
2023-04-24T01:02:07.130Z,14.10
2023-04-24T01:07:11.658Z,14.10
2023-04-24T01:12:13.511Z,14.10
2023-04-24T01:17:16.239Z,14.10
2023-04-24T01:22:21.795Z,14.10
2023-04-24T01:27:24.000Z,14.00
2023-04-24T01:32:26.561Z,14.00
2023-04-24T01:37:28.575Z,13.90
2023-04-24T01:42:30.777Z,13.80
2023-04-24T01:47:33.100Z,13.70
2023-04-24T01:52:36.232Z,13.60
2023-04-24T01:57:38.116Z,13.50
2023-04-24T02:02:45.610Z,13.40
2023-04-24T02:07:49.316Z,13.20
2023-04-24T02:12:51.096Z,13.10
2023-04-24T02:17:53.103Z,12.90
2023-04-24T02:22:54.973Z,12.70
2023-04-24T02:27:57.072Z,12.50
2023-04-24T02:32:58.894Z,12.30
2023-04-24T02:38:00.673Z,12.30
2023-04-24T02:43:02.469Z,12.40
2023-04-24T02:48:04.306Z,12.30
2023-04-24T02:53:06.162Z,12.30
2023-04-24T02:58:07.989Z,12.20
2023-04-24T03:03:10.561Z,12.10
2023-04-24T03:08:12.540Z,12.20
2023-04-24T03:13:23.696Z,12.30
2023-04-24T03:18:26.403Z,12.30
2023-04-24T03:23:29.420Z,12.30
2023-04-24T03:28:31.649Z,12.20
2023-04-24T03:33:33.480Z,12.20
2023-04-24T03:38:35.297Z,12.10
2023-04-24T03:43:37.154Z,12.00
2023-04-24T03:48:39.186Z,11.90
2023-04-24T03:53:41.292Z,11.80
2023-04-24T03:58:43.659Z,11.70
2023-04-24T04:03:45.721Z,11.60
2023-04-24T04:08:47.726Z,11.60
2023-04-24T04:13:49.590Z,11.60
2023-04-24T04:18:51.411Z,11.60
2023-04-24T04:23:53.211Z,11.60
2023-04-24T04:28:55.247Z,11.70
2023-04-24T04:33:57.271Z,11.70
2023-04-24T04:39:00.404Z,11.90
2023-04-24T04:44:05.460Z,12.00
2023-04-24T04:49:07.267Z,12.20
2023-04-24T04:54:09.118Z,12.40
2023-04-24T04:59:12.031Z,12.60
2023-04-24T05:04:14.027Z,12.90
2023-04-24T05:09:16.050Z,13.10
2023-04-24T05:14:18.918Z,13.20
2023-04-24T05:19:20.735Z,13.30
2023-04-24T05:24:22.548Z,13.40
2023-04-24T05:29:27.679Z,13.50
2023-04-24T05:34:29.502Z,13.80
2023-04-24T05:39:31.303Z,14.10
2023-04-24T05:44:33.116Z,14.30
2023-04-24T05:49:35.108Z,14.60
2023-04-24T05:54:36.962Z,14.90
2023-04-24T05:59:41.653Z,15.30
2023-04-24T06:04:43.773Z,15.40
2023-04-24T06:09:45.730Z,15.40
2023-04-24T06:14:47.584Z,15.40
2023-04-24T06:19:49.470Z,15.30
2023-04-24T06:24:51.247Z,15.20
2023-04-24T06:29:55.589Z,15.30
2023-04-24T06:34:59.475Z,15.20
2023-04-24T06:40:01.433Z,15.10
2023-04-24T06:45:03.635Z,15.00
2023-04-24T06:50:06.241Z,15.20
2023-04-24T06:55:08.892Z,15.50
2023-04-24T07:00:11.387Z,15.90
2023-04-24T07:05:13.778Z,16.10
2023-04-24T07:10:15.587Z,16.00
2023-04-24T07:15:17.883Z,16.10
2023-04-24T07:20:19.777Z,16.10
2023-04-24T07:25:21.603Z,16.20
2023-04-24T07:30:23.995Z,16.40
2023-04-24T07:35:27.023Z,16.60
2023-04-24T07:40:28.895Z,17.10
2023-04-24T07:45:32.215Z,17.50
2023-04-24T07:50:34.110Z,17.60
2023-04-24T07:55:35.944Z,17.40
2023-04-24T08:00:37.848Z,17.40
2023-04-24T08:05:41.104Z,16.90
2023-04-24T08:10:43.043Z,17.30
2023-04-24T08:15:44.988Z,17.20
2023-04-24T08:20:46.853Z,17.20
2023-04-24T08:25:49.602Z,17.10
2023-04-24T08:30:55.841Z,16.70
2023-04-24T08:35:57.779Z,16.50
2023-04-24T08:41:00.516Z,16.40
2023-04-24T08:51:08.279Z,16.70
2023-04-24T08:56:10.378Z,16.90
2023-04-24T09:01:12.521Z,17.00
2023-04-24T09:06:14.475Z,16.90
2023-04-24T09:11:16.515Z,16.70
2023-04-24T09:16:18.854Z,16.40
2023-04-24T09:21:23.327Z,16.00
2023-04-24T09:26:25.408Z,15.60
2023-04-24T09:31:28.850Z,15.40
2023-04-24T09:36:35.533Z,15.10
2023-04-24T09:42:04.666Z,14.90
2023-04-24T09:47:09.908Z,14.80
2023-04-24T09:52:12.339Z,14.50
2023-04-24T09:57:15.728Z,14.30
2023-04-24T10:02:21.432Z,14.10
2023-04-24T10:07:24.093Z,14.00
2023-04-24T10:12:26.253Z,13.90
2023-04-24T10:17:28.976Z,13.80
2023-04-24T10:22:31.326Z,13.80
2023-04-24T10:27:33.218Z,13.80
2023-04-24T10:32:35.243Z,13.80
2023-04-24T10:37:43.405Z,13.70
2023-04-24T10:42:48.451Z,13.60
2023-04-24T10:48:00.554Z,13.70
2023-04-24T10:53:15.798Z,13.60
2023-04-24T10:58:22.597Z,13.60
2023-04-24T11:03:29.877Z,13.60
2023-04-24T11:08:37.803Z,13.70
2023-04-24T11:13:55.713Z,13.80
2023-04-24T11:19:03.794Z,13.90
2023-04-24T11:24:42.873Z,13.90
2023-04-24T11:30:04.664Z,13.90
2023-04-24T11:35:20.042Z,13.80
2023-04-24T11:40:26.620Z,13.80
2023-04-24T11:45:30.783Z,13.70
2023-04-24T11:50:32.720Z,13.60
2023-04-24T11:55:34.557Z,13.50
2023-04-24T12:00:36.623Z,13.50
2023-04-24T12:05:39.639Z,13.50
2023-04-24T12:10:41.517Z,13.60
2023-04-24T12:15:43.379Z,13.80
2023-04-24T12:20:45.194Z,13.90
2023-04-24T12:25:46.969Z,14.00
2023-04-24T12:30:49.964Z,14.10
2023-04-24T12:35:55.450Z,14.10
2023-04-24T12:41:11.478Z,14.00
2023-04-24T12:46:13.999Z,14.00
2023-04-24T12:51:17.169Z,14.10
2023-04-24T12:56:22.015Z,14.00
2023-04-24T13:01:23.875Z,14.10
2023-04-24T13:06:27.445Z,14.10
2023-04-24T13:11:29.302Z,14.20
2023-04-24T13:16:31.234Z,14.20
2023-04-24T13:21:33.298Z,14.30
2023-04-24T13:26:35.161Z,14.40
2023-04-24T13:31:37.058Z,14.40
2023-04-24T13:36:39.296Z,14.40
2023-04-24T13:41:41.240Z,14.40
2023-04-24T13:46:45.480Z,14.40
2023-04-24T13:51:47.961Z,14.30
2023-04-24T13:56:50.260Z,14.20
2023-04-24T14:01:52.243Z,14.20
2023-04-24T14:06:54.068Z,14.20
2023-04-24T14:11:55.931Z,14.20
2023-04-24T14:16:58.179Z,14.30
2023-04-24T14:22:01.124Z,14.30
2023-04-24T14:27:02.938Z,14.30
2023-04-24T14:32:04.781Z,14.40
2023-04-24T14:37:06.750Z,14.40
2023-04-24T14:42:08.628Z,14.60
2023-04-24T14:47:10.666Z,14.60
2023-04-24T14:52:12.665Z,14.80
2023-04-24T14:57:16.445Z,14.80
2023-04-24T15:02:20.968Z,15.00
2023-04-24T15:07:27.440Z,15.00
2023-04-24T15:12:31.929Z,15.10
2023-04-24T15:17:33.828Z,15.10
2023-04-24T15:22:35.954Z,15.20
2023-04-24T15:27:45.012Z,15.30
2023-04-24T15:32:47.079Z,15.30
2023-04-24T15:37:49.266Z,15.30
2023-04-24T15:42:51.151Z,15.30
2023-04-24T15:47:53.008Z,15.30
2023-04-24T15:52:57.886Z,15.30
2023-04-24T15:58:00.522Z,15.10
2023-04-24T16:03:03.144Z,14.80
2023-04-24T16:08:05.224Z,14.40
2023-04-24T16:13:07.410Z,13.80
2023-04-24T16:18:09.331Z,13.00
2023-04-24T16:23:11.418Z,12.10
2023-04-24T16:28:14.011Z,12.20
2023-04-24T16:33:15.997Z,12.00
2023-04-24T16:38:17.820Z,11.80
2023-04-24T16:43:19.679Z,11.80
2023-04-24T16:48:21.475Z,11.80
2023-04-24T16:53:23.489Z,11.90
2023-04-24T16:58:25.347Z,11.90
2023-04-24T17:03:27.304Z,11.80
2023-04-24T17:08:29.842Z,11.90
2023-04-24T17:13:31.652Z,11.80
2023-04-24T17:18:33.474Z,11.80
2023-04-24T17:23:35.332Z,11.90
2023-04-24T17:28:38.763Z,11.90
2023-04-24T17:33:45.033Z,12.00
2023-04-24T17:39:00.952Z,12.00
2023-04-24T17:44:03.533Z,12.00
2023-04-24T17:49:05.742Z,12.00
2023-04-24T17:54:07.667Z,12.00
2023-04-24T17:59:09.517Z,12.00
2023-04-24T18:04:11.722Z,11.80
2023-04-24T18:09:18.930Z,11.70
2023-04-24T18:14:21.064Z,11.70
2023-04-24T18:19:22.879Z,11.70
2023-04-24T18:24:24.670Z,11.60
2023-04-24T18:29:26.506Z,11.60
2023-04-24T18:34:28.341Z,11.60
2023-04-24T18:39:30.131Z,11.60
2023-04-24T18:44:32.011Z,11.60
2023-04-24T18:49:36.072Z,11.50
2023-04-24T18:54:37.943Z,11.50
2023-04-24T18:59:39.882Z,11.40
2023-04-24T19:04:41.837Z,11.40
2023-04-24T19:09:43.695Z,11.30
2023-04-24T19:14:46.113Z,11.40
2023-04-24T19:19:48.805Z,11.30
2023-04-24T19:24:50.723Z,11.30
2023-04-24T19:29:52.605Z,11.20
2023-04-24T19:34:54.505Z,11.20
2023-04-24T19:39:56.887Z,11.30
2023-04-24T19:44:58.752Z,11.20
2023-04-24T19:50:00.582Z,11.10
2023-04-24T19:55:02.478Z,11.20
2023-04-24T20:00:08.135Z,11.20
2023-04-24T20:05:10.853Z,11.00
2023-04-24T20:10:13.122Z,11.30
2023-04-24T20:15:14.927Z,11.10
2023-04-24T20:20:16.742Z,11.10
2023-04-24T20:25:18.624Z,11.00
2023-04-24T20:30:20.639Z,10.80
2023-04-24T20:35:22.557Z,11.00
2023-04-24T20:40:24.625Z,10.90
2023-04-24T20:45:26.461Z,10.90
2023-04-24T20:50:28.540Z,10.80
2023-04-24T20:55:30.517Z,10.90
2023-04-24T21:00:32.386Z,10.80
2023-04-24T21:05:34.236Z,10.80
2023-04-24T21:10:36.064Z,10.70
2023-04-24T21:15:38.145Z,10.80
2023-04-24T21:20:40.619Z,10.70
2023-04-24T21:25:42.662Z,10.80
2023-04-24T21:30:44.639Z,10.80
2023-04-24T21:35:46.587Z,10.90
2023-04-24T21:40:52.146Z,10.70
2023-04-24T21:45:54.049Z,10.80
2023-04-24T21:50:55.923Z,10.70
2023-04-24T21:55:57.849Z,10.70
2023-04-24T22:00:59.792Z,10.70
2023-04-24T22:06:01.948Z,10.70
2023-04-24T22:11:05.746Z,10.60
2023-04-24T22:16:13.726Z,10.60
2023-04-24T22:21:15.773Z,10.60
2023-04-24T22:26:17.736Z,10.50
2023-04-24T22:31:19.721Z,10.50
2023-04-24T22:36:21.821Z,10.50
2023-04-24T22:41:23.823Z,10.50
2023-04-24T22:46:25.777Z,10.50
2023-04-24T22:51:27.645Z,10.50
2023-04-24T22:56:29.517Z,10.40
2023-04-24T23:01:31.367Z,10.40
2023-04-24T23:06:33.219Z,10.40
2023-04-24T23:11:35.050Z,10.40
2023-04-24T23:16:37.755Z,10.30
2023-04-24T23:21:39.661Z,10.30
2023-04-24T23:26:41.552Z,10.20
2023-04-24T23:31:43.508Z,10.30
2023-04-24T23:36:48.340Z,10.20
2023-04-24T23:42:02.647Z,10.20
2023-04-24T23:47:04.426Z,10.20
2023-04-24T23:52:06.211Z,10.10
2023-04-24T23:57:08.928Z,10.10
